sensor_id;sensor_type;location;lat;lon;timestamp;P1;durP1;ratioP1;P2;durP2;ratioP2
11614;SDS011;5863;52.832;4.758;2022-09-09T00:02:20;9.65;;;5.88;;
11614;SDS011;5863;52.832;4.758;2022-09-09T00:04:51;7.22;;;4.82;;
11614;SDS011;5863;52.832;4.758;2022-09-09T00:07:28;7.07;;;4.82;;
11614;SDS011;5863;52.832;4.758;2022-09-09T00:10:06;8.00;;;4.93;;
11614;SDS011;5863;52.832;4.758;2022-09-09T00:12:44;6.32;;;4.40;;
11614;SDS011;5863;52.832;4.758;2022-09-09T00:15:20;7.57;;;4.80;;
11614;SDS011;5863;52.832;4.758;2022-09-09T00:17:51;7.65;;;4.93;;
11614;SDS011;5863;52.832;4.758;2022-09-09T00:20:25;8.10;;;4.47;;
11614;SDS011;5863;52.832;4.758;2022-09-09T00:22:59;9.23;;;4.88;;
11614;SDS011;5863;52.832;4.758;2022-09-09T00:25:31;7.50;;;5.00;;
11614;SDS011;5863;52.832;4.758;2022-09-09T00:28:04;8.77;;;4.72;;
11614;SDS011;5863;52.832;4.758;2022-09-09T00:30:43;7.95;;;4.90;;
11614;SDS011;5863;52.832;4.758;2022-09-09T00:33:13;7.80;;;5.30;;
11614;SDS011;5863;52.832;4.758;2022-09-09T00:35:45;7.10;;;4.82;;
11614;SDS011;5863;52.832;4.758;2022-09-09T00:38:15;8.55;;;5.10;;
11614;SDS011;5863;52.832;4.758;2022-09-09T00:40:46;10.45;;;5.38;;
11614;SDS011;5863;52.832;4.758;2022-09-09T00:43:22;7.82;;;4.85;;
11614;SDS011;5863;52.832;4.758;2022-09-09T00:45:58;7.53;;;5.00;;
11614;SDS011;5863;52.832;4.758;2022-09-09T00:48:41;7.25;;;5.15;;
11614;SDS011;5863;52.832;4.758;2022-09-09T00:51:20;10.93;;;5.18;;
11614;SDS011;5863;52.832;4.758;2022-09-09T00:54:05;11.48;;;5.57;;
11614;SDS011;5863;52.832;4.758;2022-09-09T00:56:43;8.95;;;5.97;;
11614;SDS011;5863;52.832;4.758;2022-09-09T00:59:18;7.78;;;5.72;;
11614;SDS011;5863;52.832;4.758;2022-09-09T01:01:54;10.48;;;4.97;;
11614;SDS011;5863;52.832;4.758;2022-09-09T01:04:22;7.93;;;5.80;;
11614;SDS011;5863;52.832;4.758;2022-09-09T01:06:58;7.22;;;5.55;;
11614;SDS011;5863;52.832;4.758;2022-09-09T01:09:37;9.48;;;5.82;;
11614;SDS011;5863;52.832;4.758;2022-09-09T01:12:09;10.50;;;5.55;;
11614;SDS011;5863;52.832;4.758;2022-09-09T01:14:41;7.55;;;5.45;;
11614;SDS011;5863;52.832;4.758;2022-09-09T01:17:12;7.30;;;5.18;;
11614;SDS011;5863;52.832;4.758;2022-09-09T01:19:45;7.35;;;5.30;;
11614;SDS011;5863;52.832;4.758;2022-09-09T01:22:28;8.15;;;5.90;;
11614;SDS011;5863;52.832;4.758;2022-09-09T01:27:54;8.57;;;5.65;;
11614;SDS011;5863;52.832;4.758;2022-09-09T01:30:25;6.47;;;5.13;;
11614;SDS011;5863;52.832;4.758;2022-09-09T01:32:54;8.60;;;5.95;;
11614;SDS011;5863;52.832;4.758;2022-09-09T01:35:27;8.20;;;6.18;;
11614;SDS011;5863;52.832;4.758;2022-09-09T01:38:01;7.38;;;5.55;;
11614;SDS011;5863;52.832;4.758;2022-09-09T01:40:28;7.57;;;5.40;;
11614;SDS011;5863;52.832;4.758;2022-09-09T01:42:56;9.00;;;6.10;;
11614;SDS011;5863;52.832;4.758;2022-09-09T01:45:23;8.25;;;6.00;;
11614;SDS011;5863;52.832;4.758;2022-09-09T01:47:50;7.45;;;5.70;;
11614;SDS011;5863;52.832;4.758;2022-09-09T01:50:18;11.95;;;6.53;;
11614;SDS011;5863;52.832;4.758;2022-09-09T01:52:47;8.93;;;5.90;;
11614;SDS011;5863;52.832;4.758;2022-09-09T01:55:18;9.18;;;5.60;;
11614;SDS011;5863;52.832;4.758;2022-09-09T01:57:53;9.90;;;6.50;;
11614;SDS011;5863;52.832;4.758;2022-09-09T02:00:30;8.57;;;6.35;;
11614;SDS011;5863;52.832;4.758;2022-09-09T02:03:00;9.45;;;6.72;;
11614;SDS011;5863;52.832;4.758;2022-09-09T02:05:36;8.65;;;5.97;;
11614;SDS011;5863;52.832;4.758;2022-09-09T02:08:05;9.48;;;6.80;;
11614;SDS011;5863;52.832;4.758;2022-09-09T02:10:45;8.65;;;6.40;;
11614;SDS011;5863;52.832;4.758;2022-09-09T02:13:18;8.85;;;6.75;;
11614;SDS011;5863;52.832;4.758;2022-09-09T02:15:49;9.75;;;6.75;;
11614;SDS011;5863;52.832;4.758;2022-09-09T02:18:22;8.55;;;6.88;;
11614;SDS011;5863;52.832;4.758;2022-09-09T02:20:53;8.90;;;6.75;;
11614;SDS011;5863;52.832;4.758;2022-09-09T02:23:20;11.35;;;6.40;;
11614;SDS011;5863;52.832;4.758;2022-09-09T02:25:47;10.70;;;7.05;;
11614;SDS011;5863;52.832;4.758;2022-09-09T02:28:16;11.75;;;7.45;;
11614;SDS011;5863;52.832;4.758;2022-09-09T02:30:49;9.60;;;6.55;;
11614;SDS011;5863;52.832;4.758;2022-09-09T02:33:21;10.05;;;7.32;;
11614;SDS011;5863;52.832;4.758;2022-09-09T02:35:51;9.50;;;6.75;;
11614;SDS011;5863;52.832;4.758;2022-09-09T02:38:21;11.48;;;6.55;;
11614;SDS011;5863;52.832;4.758;2022-09-09T02:40:52;11.18;;;6.40;;
11614;SDS011;5863;52.832;4.758;2022-09-09T02:43:21;11.07;;;6.63;;
11614;SDS011;5863;52.832;4.758;2022-09-09T02:45:51;9.63;;;6.28;;
11614;SDS011;5863;52.832;4.758;2022-09-09T02:48:26;8.15;;;6.70;;
11614;SDS011;5863;52.832;4.758;2022-09-09T02:51:00;8.60;;;6.50;;
11614;SDS011;5863;52.832;4.758;2022-09-09T02:53:33;12.80;;;6.20;;
11614;SDS011;5863;52.832;4.758;2022-09-09T02:56:11;9.77;;;6.05;;
11614;SDS011;5863;52.832;4.758;2022-09-09T02:58:43;8.82;;;5.70;;
11614;SDS011;5863;52.832;4.758;2022-09-09T03:01:11;8.50;;;6.68;;
11614;SDS011;5863;52.832;4.758;2022-09-09T03:03:39;9.10;;;6.55;;
11614;SDS011;5863;52.832;4.758;2022-09-09T03:06:06;12.15;;;7.15;;
11614;SDS011;5863;52.832;4.758;2022-09-09T03:08:33;7.72;;;6.85;;
11614;SDS011;5863;52.832;4.758;2022-09-09T03:11:00;10.48;;;7.25;;
11614;SDS011;5863;52.832;4.758;2022-09-09T03:13:27;10.23;;;7.40;;
11614;SDS011;5863;52.832;4.758;2022-09-09T03:15:55;13.98;;;7.78;;
11614;SDS011;5863;52.832;4.758;2022-09-09T03:18:22;11.00;;;7.65;;
11614;SDS011;5863;52.832;4.758;2022-09-09T03:20:49;12.02;;;7.85;;
11614;SDS011;5863;52.832;4.758;2022-09-09T03:23:16;10.02;;;7.95;;
11614;SDS011;5863;52.832;4.758;2022-09-09T03:25:46;13.77;;;8.40;;
11614;SDS011;5863;52.832;4.758;2022-09-09T03:28:13;10.40;;;8.23;;
11614;SDS011;5863;52.832;4.758;2022-09-09T03:30:40;13.73;;;8.23;;
11614;SDS011;5863;52.832;4.758;2022-09-09T03:33:09;10.82;;;8.20;;
11614;SDS011;5863;52.832;4.758;2022-09-09T03:35:36;12.98;;;8.30;;
11614;SDS011;5863;52.832;4.758;2022-09-09T03:38:02;12.98;;;8.45;;
11614;SDS011;5863;52.832;4.758;2022-09-09T03:40:29;11.10;;;8.95;;
11614;SDS011;5863;52.832;4.758;2022-09-09T03:42:56;13.05;;;9.55;;
11614;SDS011;5863;52.832;4.758;2022-09-09T03:45:23;12.32;;;10.50;;
11614;SDS011;5863;52.832;4.758;2022-09-09T03:47:49;17.85;;;12.43;;
11614;SDS011;5863;52.832;4.758;2022-09-09T03:50:17;17.23;;;11.68;;
11614;SDS011;5863;52.832;4.758;2022-09-09T03:52:44;13.30;;;11.30;;
11614;SDS011;5863;52.832;4.758;2022-09-09T03:55:11;18.67;;;12.60;;
11614;SDS011;5863;52.832;4.758;2022-09-09T03:57:38;17.92;;;12.85;;
11614;SDS011;5863;52.832;4.758;2022-09-09T04:00:05;15.13;;;12.35;;
11614;SDS011;5863;52.832;4.758;2022-09-09T04:02:33;17.73;;;12.43;;
11614;SDS011;5863;52.832;4.758;2022-09-09T04:05:00;16.00;;;12.48;;
11614;SDS011;5863;52.832;4.758;2022-09-09T04:07:28;16.73;;;13.02;;
11614;SDS011;5863;52.832;4.758;2022-09-09T04:09:55;19.10;;;13.07;;
11614;SDS011;5863;52.832;4.758;2022-09-09T04:12:22;17.08;;;12.57;;
11614;SDS011;5863;52.832;4.758;2022-09-09T04:14:48;16.70;;;13.07;;
11614;SDS011;5863;52.832;4.758;2022-09-09T04:17:15;18.80;;;14.07;;
11614;SDS011;5863;52.832;4.758;2022-09-09T04:19:42;17.52;;;12.93;;
11614;SDS011;5863;52.832;4.758;2022-09-09T04:22:09;18.08;;;13.50;;
11614;SDS011;5863;52.832;4.758;2022-09-09T04:24:37;16.13;;;12.57;;
11614;SDS011;5863;52.832;4.758;2022-09-09T04:27:03;19.42;;;12.73;;
11614;SDS011;5863;52.832;4.758;2022-09-09T04:29:30;17.58;;;12.90;;
11614;SDS011;5863;52.832;4.758;2022-09-09T04:31:57;17.05;;;12.95;;
11614;SDS011;5863;52.832;4.758;2022-09-09T04:34:23;19.02;;;13.18;;
11614;SDS011;5863;52.832;4.758;2022-09-09T04:36:50;16.02;;;12.43;;
11614;SDS011;5863;52.832;4.758;2022-09-09T04:39:17;17.63;;;12.73;;
11614;SDS011;5863;52.832;4.758;2022-09-09T04:41:45;17.58;;;13.00;;
11614;SDS011;5863;52.832;4.758;2022-09-09T04:44:12;16.45;;;12.88;;
11614;SDS011;5863;52.832;4.758;2022-09-09T04:46:39;14.13;;;12.63;;
11614;SDS011;5863;52.832;4.758;2022-09-09T04:49:06;16.75;;;12.70;;
11614;SDS011;5863;52.832;4.758;2022-09-09T04:51:32;13.75;;;12.35;;
11614;SDS011;5863;52.832;4.758;2022-09-09T04:53:59;13.85;;;11.95;;
11614;SDS011;5863;52.832;4.758;2022-09-09T04:56:26;15.75;;;12.68;;
11614;SDS011;5863;52.832;4.758;2022-09-09T04:58:54;15.68;;;11.27;;
11614;SDS011;5863;52.832;4.758;2022-09-09T05:01:21;14.57;;;11.90;;
11614;SDS011;5863;52.832;4.758;2022-09-09T05:03:49;12.93;;;10.77;;
11614;SDS011;5863;52.832;4.758;2022-09-09T05:06:17;13.93;;;11.52;;
11614;SDS011;5863;52.832;4.758;2022-09-09T05:08:45;13.20;;;11.18;;
11614;SDS011;5863;52.832;4.758;2022-09-09T05:11:13;15.15;;;12.00;;
11614;SDS011;5863;52.832;4.758;2022-09-09T05:13:42;13.32;;;11.35;;
11614;SDS011;5863;52.832;4.758;2022-09-09T05:16:10;12.85;;;11.43;;
11614;SDS011;5863;52.832;4.758;2022-09-09T05:18:37;13.68;;;10.98;;
11614;SDS011;5863;52.832;4.758;2022-09-09T05:21:04;13.43;;;11.38;;
11614;SDS011;5863;52.832;4.758;2022-09-09T05:23:31;13.32;;;11.13;;
11614;SDS011;5863;52.832;4.758;2022-09-09T05:25:59;12.63;;;10.77;;
11614;SDS011;5863;52.832;4.758;2022-09-09T05:28:26;12.82;;;10.85;;
11614;SDS011;5863;52.832;4.758;2022-09-09T05:30:57;11.07;;;9.93;;
11614;SDS011;5863;52.832;4.758;2022-09-09T05:33:26;13.48;;;10.43;;
11614;SDS011;5863;52.832;4.758;2022-09-09T05:35:57;10.73;;;9.63;;
11614;SDS011;5863;52.832;4.758;2022-09-09T05:38:25;13.70;;;9.60;;
11614;SDS011;5863;52.832;4.758;2022-09-09T05:40:52;13.35;;;9.32;;
11614;SDS011;5863;52.832;4.758;2022-09-09T05:43:19;13.70;;;9.70;;
11614;SDS011;5863;52.832;4.758;2022-09-09T05:45:46;13.48;;;9.38;;
11614;SDS011;5863;52.832;4.758;2022-09-09T05:48:13;11.75;;;8.82;;
11614;SDS011;5863;52.832;4.758;2022-09-09T05:50:42;12.02;;;8.80;;
11614;SDS011;5863;52.832;4.758;2022-09-09T05:53:11;11.20;;;8.65;;
11614;SDS011;5863;52.832;4.758;2022-09-09T05:55:37;13.10;;;8.20;;
11614;SDS011;5863;52.832;4.758;2022-09-09T05:58:04;11.95;;;7.88;;
11614;SDS011;5863;52.832;4.758;2022-09-09T06:00:31;10.52;;;8.50;;
11614;SDS011;5863;52.832;4.758;2022-09-09T06:02:58;14.30;;;7.72;;
11614;SDS011;5863;52.832;4.758;2022-09-09T06:05:25;9.68;;;7.50;;
11614;SDS011;5863;52.832;4.758;2022-09-09T06:07:54;10.60;;;7.50;;
11614;SDS011;5863;52.832;4.758;2022-09-09T06:10:21;9.38;;;7.38;;
11614;SDS011;5863;52.832;4.758;2022-09-09T06:12:48;10.65;;;7.00;;
11614;SDS011;5863;52.832;4.758;2022-09-09T06:15:15;8.93;;;6.38;;
11614;SDS011;5863;52.832;4.758;2022-09-09T06:17:42;9.02;;;6.80;;
11614;SDS011;5863;52.832;4.758;2022-09-09T06:20:10;11.90;;;6.28;;
11614;SDS011;5863;52.832;4.758;2022-09-09T06:22:38;8.82;;;5.72;;
11614;SDS011;5863;52.832;4.758;2022-09-09T06:25:08;7.25;;;5.57;;
11614;SDS011;5863;52.832;4.758;2022-09-09T06:27:35;7.50;;;5.13;;
11614;SDS011;5863;52.832;4.758;2022-09-09T06:30:02;7.10;;;5.00;;
11614;SDS011;5863;52.832;4.758;2022-09-09T06:32:29;7.93;;;4.72;;
11614;SDS011;5863;52.832;4.758;2022-09-09T06:34:55;6.68;;;4.63;;
11614;SDS011;5863;52.832;4.758;2022-09-09T06:37:23;6.25;;;5.13;;
11614;SDS011;5863;52.832;4.758;2022-09-09T06:39:53;9.57;;;4.95;;
11614;SDS011;5863;52.832;4.758;2022-09-09T06:42:21;5.85;;;4.53;;
11614;SDS011;5863;52.832;4.758;2022-09-09T06:44:48;9.35;;;4.55;;
11614;SDS011;5863;52.832;4.758;2022-09-09T06:47:15;7.10;;;4.40;;
11614;SDS011;5863;52.832;4.758;2022-09-09T06:49:42;6.10;;;3.78;;
11614;SDS011;5863;52.832;4.758;2022-09-09T06:52:08;7.47;;;4.40;;
11614;SDS011;5863;52.832;4.758;2022-09-09T06:54:35;5.97;;;4.07;;
11614;SDS011;5863;52.832;4.758;2022-09-09T06:57:02;8.15;;;4.05;;
11614;SDS011;5863;52.832;4.758;2022-09-09T06:59:33;7.15;;;4.40;;
11614;SDS011;5863;52.832;4.758;2022-09-09T07:02:00;5.72;;;3.80;;
11614;SDS011;5863;52.832;4.758;2022-09-09T07:04:26;6.22;;;3.53;;
11614;SDS011;5863;52.832;4.758;2022-09-09T07:06:53;8.15;;;3.75;;
11614;SDS011;5863;52.832;4.758;2022-09-09T07:09:20;6.15;;;3.60;;
11614;SDS011;5863;52.832;4.758;2022-09-09T07:11:48;8.90;;;3.95;;
11614;SDS011;5863;52.832;4.758;2022-09-09T07:14:15;6.30;;;3.78;;
11614;SDS011;5863;52.832;4.758;2022-09-09T07:16:44;5.63;;;3.35;;
11614;SDS011;5863;52.832;4.758;2022-09-09T07:19:11;7.55;;;3.72;;
11614;SDS011;5863;52.832;4.758;2022-09-09T07:21:39;8.05;;;3.40;;
11614;SDS011;5863;52.832;4.758;2022-09-09T07:24:06;9.15;;;3.42;;
11614;SDS011;5863;52.832;4.758;2022-09-09T07:26:35;7.32;;;3.97;;
11614;SDS011;5863;52.832;4.758;2022-09-09T07:29:01;7.40;;;3.85;;
11614;SDS011;5863;52.832;4.758;2022-09-09T07:31:29;6.75;;;3.72;;
11614;SDS011;5863;52.832;4.758;2022-09-09T07:33:58;6.00;;;3.90;;
11614;SDS011;5863;52.832;4.758;2022-09-09T07:36:26;9.63;;;4.10;;
11614;SDS011;5863;52.832;4.758;2022-09-09T07:38:55;6.70;;;4.00;;
11614;SDS011;5863;52.832;4.758;2022-09-09T07:41:23;7.18;;;4.10;;
11614;SDS011;5863;52.832;4.758;2022-09-09T07:43:51;6.28;;;3.95;;
11614;SDS011;5863;52.832;4.758;2022-09-09T07:46:20;8.00;;;4.43;;
11614;SDS011;5863;52.832;4.758;2022-09-09T07:48:49;7.30;;;4.35;;
11614;SDS011;5863;52.832;4.758;2022-09-09T07:51:19;7.72;;;4.40;;
11614;SDS011;5863;52.832;4.758;2022-09-09T07:53:47;7.68;;;3.95;;
11614;SDS011;5863;52.832;4.758;2022-09-09T07:56:17;5.85;;;4.03;;
11614;SDS011;5863;52.832;4.758;2022-09-09T07:58:46;8.15;;;4.32;;
11614;SDS011;5863;52.832;4.758;2022-09-09T08:01:18;7.25;;;4.15;;
11614;SDS011;5863;52.832;4.758;2022-09-09T08:03:46;9.10;;;4.72;;
11614;SDS011;5863;52.832;4.758;2022-09-09T08:06:19;7.68;;;4.45;;
11614;SDS011;5863;52.832;4.758;2022-09-09T08:08:49;7.10;;;4.50;;
11614;SDS011;5863;52.832;4.758;2022-09-09T08:11:16;5.82;;;4.75;;
11614;SDS011;5863;52.832;4.758;2022-09-09T08:13:43;9.82;;;4.97;;
11614;SDS011;5863;52.832;4.758;2022-09-09T08:16:11;6.95;;;4.88;;
11614;SDS011;5863;52.832;4.758;2022-09-09T08:18:39;8.02;;;4.97;;
11614;SDS011;5863;52.832;4.758;2022-09-09T08:21:07;7.38;;;4.95;;
11614;SDS011;5863;52.832;4.758;2022-09-09T08:23:38;7.32;;;5.45;;
11614;SDS011;5863;52.832;4.758;2022-09-09T08:26:06;10.32;;;5.70;;
11614;SDS011;5863;52.832;4.758;2022-09-09T08:28:35;10.45;;;5.20;;
11614;SDS011;5863;52.832;4.758;2022-09-09T08:31:06;8.57;;;5.25;;
11614;SDS011;5863;52.832;4.758;2022-09-09T08:33:34;9.20;;;5.63;;
11614;SDS011;5863;52.832;4.758;2022-09-09T08:36:03;7.13;;;5.65;;
11614;SDS011;5863;52.832;4.758;2022-09-09T08:38:30;9.18;;;6.13;;
11614;SDS011;5863;52.832;4.758;2022-09-09T08:41:01;8.35;;;6.10;;
11614;SDS011;5863;52.832;4.758;2022-09-09T08:43:36;7.60;;;5.88;;
11614;SDS011;5863;52.832;4.758;2022-09-09T08:46:05;7.57;;;5.43;;
11614;SDS011;5863;52.832;4.758;2022-09-09T08:48:44;8.23;;;5.50;;
11614;SDS011;5863;52.832;4.758;2022-09-09T08:51:20;8.25;;;5.43;;
11614;SDS011;5863;52.832;4.758;2022-09-09T08:53:48;7.18;;;5.50;;
11614;SDS011;5863;52.832;4.758;2022-09-09T08:56:18;6.72;;;5.40;;
11614;SDS011;5863;52.832;4.758;2022-09-09T08:58:49;6.60;;;5.28;;
11614;SDS011;5863;52.832;4.758;2022-09-09T09:01:22;9.50;;;5.40;;
11614;SDS011;5863;52.832;4.758;2022-09-09T09:04:11;7.32;;;4.65;;
11614;SDS011;5863;52.832;4.758;2022-09-09T09:06:50;6.97;;;4.75;;
11614;SDS011;5863;52.832;4.758;2022-09-09T09:09:34;11.50;;;5.03;;
11614;SDS011;5863;52.832;4.758;2022-09-09T09:12:14;8.35;;;5.13;;
11614;SDS011;5863;52.832;4.758;2022-09-09T09:14:44;8.10;;;5.28;;
11614;SDS011;5863;52.832;4.758;2022-09-09T09:17:14;8.15;;;5.25;;
11614;SDS011;5863;52.832;4.758;2022-09-09T09:19:42;8.65;;;4.80;;
11614;SDS011;5863;52.832;4.758;2022-09-09T09:22:14;7.70;;;4.65;;
11614;SDS011;5863;52.832;4.758;2022-09-09T09:24:45;7.00;;;4.90;;
11614;SDS011;5863;52.832;4.758;2022-09-09T09:27:21;8.07;;;4.75;;
11614;SDS011;5863;52.832;4.758;2022-09-09T09:30:00;9.13;;;4.95;;
11614;SDS011;5863;52.832;4.758;2022-09-09T09:32:33;8.38;;;5.03;;
11614;SDS011;5863;52.832;4.758;2022-09-09T09:35:02;7.38;;;3.95;;
11614;SDS011;5863;52.832;4.758;2022-09-09T09:37:35;9.00;;;4.40;;
11614;SDS011;5863;52.832;4.758;2022-09-09T09:40:08;7.93;;;4.30;;
11614;SDS011;5863;52.832;4.758;2022-09-09T09:42:37;10.55;;;4.43;;
11614;SDS011;5863;52.832;4.758;2022-09-09T09:45:15;6.85;;;4.15;;
11614;SDS011;5863;52.832;4.758;2022-09-09T09:47:46;7.00;;;4.22;;
11614;SDS011;5863;52.832;4.758;2022-09-09T09:50:24;8.98;;;4.53;;
11614;SDS011;5863;52.832;4.758;2022-09-09T09:52:54;7.50;;;4.50;;
11614;SDS011;5863;52.832;4.758;2022-09-09T09:55:22;7.72;;;4.68;;
11614;SDS011;5863;52.832;4.758;2022-09-09T09:57:51;10.93;;;4.50;;
11614;SDS011;5863;52.832;4.758;2022-09-09T10:00:19;8.75;;;4.25;;
11614;SDS011;5863;52.832;4.758;2022-09-09T10:02:48;6.65;;;3.90;;
11614;SDS011;5863;52.832;4.758;2022-09-09T10:05:18;5.95;;;4.15;;
11614;SDS011;5863;52.832;4.758;2022-09-09T10:07:46;7.90;;;4.28;;
11614;SDS011;5863;52.832;4.758;2022-09-09T10:10:15;11.05;;;4.28;;
11614;SDS011;5863;52.832;4.758;2022-09-09T10:12:50;9.70;;;4.03;;
11614;SDS011;5863;52.832;4.758;2022-09-09T10:15:31;8.20;;;4.00;;
11614;SDS011;5863;52.832;4.758;2022-09-09T10:18:08;9.10;;;3.75;;
11614;SDS011;5863;52.832;4.758;2022-09-09T10:20:45;5.20;;;3.50;;
11614;SDS011;5863;52.832;4.758;2022-09-09T10:23:25;8.15;;;3.63;;
11614;SDS011;5863;52.832;4.758;2022-09-09T10:26:14;8.48;;;3.85;;
11614;SDS011;5863;52.832;4.758;2022-09-09T10:29:01;5.97;;;3.72;;
11614;SDS011;5863;52.832;4.758;2022-09-09T10:31:50;6.80;;;3.90;;
11614;SDS011;5863;52.832;4.758;2022-09-09T10:34:31;5.30;;;3.95;;
11614;SDS011;5863;52.832;4.758;2022-09-09T10:37:11;5.80;;;3.80;;
11614;SDS011;5863;52.832;4.758;2022-09-09T10:39:48;5.28;;;3.75;;
11614;SDS011;5863;52.832;4.758;2022-09-09T10:42:23;9.50;;;4.82;;
11614;SDS011;5863;52.832;4.758;2022-09-09T10:45:01;11.27;;;4.03;;
11614;SDS011;5863;52.832;4.758;2022-09-09T10:47:43;7.15;;;3.63;;
11614;SDS011;5863;52.832;4.758;2022-09-09T10:50:30;6.75;;;4.03;;
11614;SDS011;5863;52.832;4.758;2022-09-09T10:53:14;7.95;;;3.47;;
11614;SDS011;5863;52.832;4.758;2022-09-09T10:55:48;8.93;;;4.07;;
11614;SDS011;5863;52.832;4.758;2022-09-09T10:58:19;7.20;;;3.63;;
11614;SDS011;5863;52.832;4.758;2022-09-09T11:00:53;6.35;;;3.75;;
11614;SDS011;5863;52.832;4.758;2022-09-09T11:03:25;5.20;;;2.92;;
11614;SDS011;5863;52.832;4.758;2022-09-09T11:05:56;5.28;;;3.40;;
11614;SDS011;5863;52.832;4.758;2022-09-09T11:08:27;6.05;;;3.40;;
11614;SDS011;5863;52.832;4.758;2022-09-09T11:10:57;6.55;;;3.20;;
11614;SDS011;5863;52.832;4.758;2022-09-09T11:13:30;7.22;;;3.33;;
11614;SDS011;5863;52.832;4.758;2022-09-09T11:16:12;8.60;;;3.55;;
11614;SDS011;5863;52.832;4.758;2022-09-09T11:18:45;4.65;;;3.13;;
11614;SDS011;5863;52.832;4.758;2022-09-09T11:21:15;8.25;;;3.58;;
11614;SDS011;5863;52.832;4.758;2022-09-09T11:23:51;8.85;;;3.65;;
11614;SDS011;5863;52.832;4.758;2022-09-09T11:26:26;7.88;;;4.00;;
11614;SDS011;5863;52.832;4.758;2022-09-09T11:29:05;6.65;;;3.78;;
11614;SDS011;5863;52.832;4.758;2022-09-09T11:31:51;7.25;;;3.50;;
11614;SDS011;5863;52.832;4.758;2022-09-09T11:34:29;6.38;;;3.35;;
11614;SDS011;5863;52.832;4.758;2022-09-09T11:37:08;7.95;;;3.80;;
11614;SDS011;5863;52.832;4.758;2022-09-09T11:40:19;9.75;;;3.45;;
11614;SDS011;5863;52.832;4.758;2022-09-09T11:42:59;5.47;;;3.20;;
11614;SDS011;5863;52.832;4.758;2022-09-09T11:45:29;4.38;;;3.42;;
11614;SDS011;5863;52.832;4.758;2022-09-09T11:47:57;6.50;;;3.30;;
11614;SDS011;5863;52.832;4.758;2022-09-09T11:50:33;6.93;;;3.33;;
11614;SDS011;5863;52.832;4.758;2022-09-09T11:53:20;6.97;;;2.80;;
11614;SDS011;5863;52.832;4.758;2022-09-09T11:55:48;4.93;;;2.72;;
11614;SDS011;5863;52.832;4.758;2022-09-09T11:58:28;6.40;;;3.30;;
11614;SDS011;5863;52.832;4.758;2022-09-09T12:01:00;8.90;;;3.28;;
11614;SDS011;5863;52.832;4.758;2022-09-09T12:03:39;8.30;;;3.58;;
11614;SDS011;5863;52.832;4.758;2022-09-09T12:06:11;7.75;;;2.97;;
11614;SDS011;5863;52.832;4.758;2022-09-09T12:08:42;7.15;;;3.20;;
11614;SDS011;5863;52.832;4.758;2022-09-09T12:11:11;3.72;;;2.63;;
11614;SDS011;5863;52.832;4.758;2022-09-09T12:13:38;6.35;;;3.03;;
11614;SDS011;5863;52.832;4.758;2022-09-09T12:19:12;7.05;;;3.10;;
11614;SDS011;5863;52.832;4.758;2022-09-09T12:21:44;4.00;;;2.55;;
11614;SDS011;5863;52.832;4.758;2022-09-09T12:24:18;6.72;;;2.67;;
11614;SDS011;5863;52.832;4.758;2022-09-09T12:26:54;7.80;;;2.72;;
11614;SDS011;5863;52.832;4.758;2022-09-09T12:29:28;4.43;;;2.50;;
11614;SDS011;5863;52.832;4.758;2022-09-09T12:32:02;5.30;;;2.50;;
11614;SDS011;5863;52.832;4.758;2022-09-09T12:34:35;7.65;;;2.83;;
11614;SDS011;5863;52.832;4.758;2022-09-09T12:37:06;10.43;;;3.40;;
11614;SDS011;5863;52.832;4.758;2022-09-09T12:39:43;5.88;;;2.92;;
11614;SDS011;5863;52.832;4.758;2022-09-09T12:42:16;6.93;;;3.00;;
11614;SDS011;5863;52.832;4.758;2022-09-09T12:44:54;5.43;;;2.88;;
11614;SDS011;5863;52.832;4.758;2022-09-09T12:47:24;7.05;;;2.78;;
11614;SDS011;5863;52.832;4.758;2022-09-09T12:49:57;8.13;;;3.10;;
11614;SDS011;5863;52.832;4.758;2022-09-09T12:52:25;5.05;;;2.80;;
11614;SDS011;5863;52.832;4.758;2022-09-09T12:54:55;5.35;;;3.22;;
11614;SDS011;5863;52.832;4.758;2022-09-09T12:57:24;3.33;;;2.70;;
11614;SDS011;5863;52.832;4.758;2022-09-09T13:00:03;4.57;;;2.80;;
11614;SDS011;5863;52.832;4.758;2022-09-09T13:02:31;4.20;;;2.72;;
11614;SDS011;5863;52.832;4.758;2022-09-09T13:05:08;4.82;;;2.50;;
11614;SDS011;5863;52.832;4.758;2022-09-09T13:07:41;5.82;;;2.92;;
11614;SDS011;5863;52.832;4.758;2022-09-09T13:10:24;7.88;;;2.72;;
11614;SDS011;5863;52.832;4.758;2022-09-09T13:12:54;3.55;;;2.45;;
11614;SDS011;5863;52.832;4.758;2022-09-09T13:15:23;3.47;;;2.10;;
11614;SDS011;5863;52.832;4.758;2022-09-09T13:17:53;5.82;;;2.65;;
11614;SDS011;5863;52.832;4.758;2022-09-09T13:20:23;5.10;;;2.60;;
11614;SDS011;5863;52.832;4.758;2022-09-09T13:22:51;4.13;;;2.65;;
11614;SDS011;5863;52.832;4.758;2022-09-09T13:25:21;6.00;;;2.85;;
11614;SDS011;5863;52.832;4.758;2022-09-09T13:27:52;5.25;;;2.80;;
11614;SDS011;5863;52.832;4.758;2022-09-09T13:30:24;4.75;;;2.78;;
11614;SDS011;5863;52.832;4.758;2022-09-09T13:33:06;3.78;;;2.63;;
11614;SDS011;5863;52.832;4.758;2022-09-09T13:35:49;5.90;;;3.38;;
11614;SDS011;5863;52.832;4.758;2022-09-09T13:38:18;3.83;;;3.20;;
11614;SDS011;5863;52.832;4.758;2022-09-09T13:40:53;4.35;;;2.28;;
11614;SDS011;5863;52.832;4.758;2022-09-09T13:43:23;6.97;;;3.05;;
11614;SDS011;5863;52.832;4.758;2022-09-09T13:45:52;3.03;;;2.45;;
11614;SDS011;5863;52.832;4.758;2022-09-09T13:48:21;6.75;;;2.95;;
11614;SDS011;5863;52.832;4.758;2022-09-09T13:50:54;4.35;;;2.47;;
11614;SDS011;5863;52.832;4.758;2022-09-09T13:53:22;3.42;;;2.00;;
11614;SDS011;5863;52.832;4.758;2022-09-09T13:55:49;3.28;;;1.50;;
11614;SDS011;5863;52.832;4.758;2022-09-09T13:58:17;2.42;;;2.10;;
11614;SDS011;5863;52.832;4.758;2022-09-09T14:00:44;2.63;;;1.80;;
11614;SDS011;5863;52.832;4.758;2022-09-09T14:03:11;3.38;;;1.90;;
11614;SDS011;5863;52.832;4.758;2022-09-09T14:05:39;3.47;;;1.90;;
11614;SDS011;5863;52.832;4.758;2022-09-09T14:08:09;3.45;;;1.77;;
11614;SDS011;5863;52.832;4.758;2022-09-09T14:10:42;2.33;;;1.88;;
11614;SDS011;5863;52.832;4.758;2022-09-09T14:13:09;2.53;;;1.85;;
11614;SDS011;5863;52.832;4.758;2022-09-09T14:15:37;3.75;;;1.95;;
11614;SDS011;5863;52.832;4.758;2022-09-09T14:18:04;2.72;;;1.88;;
11614;SDS011;5863;52.832;4.758;2022-09-09T14:20:30;1.75;;;1.60;;
11614;SDS011;5863;52.832;4.758;2022-09-09T14:22:57;2.97;;;1.50;;
11614;SDS011;5863;52.832;4.758;2022-09-09T14:25:25;1.60;;;1.50;;
11614;SDS011;5863;52.832;4.758;2022-09-09T14:27:52;2.60;;;1.70;;
11614;SDS011;5863;52.832;4.758;2022-09-09T14:30:19;4.65;;;1.95;;
11614;SDS011;5863;52.832;4.758;2022-09-09T14:32:45;4.57;;;2.28;;
11614;SDS011;5863;52.832;4.758;2022-09-09T14:35:12;2.65;;;1.90;;
11614;SDS011;5863;52.832;4.758;2022-09-09T14:37:39;4.30;;;2.15;;
11614;SDS011;5863;52.832;4.758;2022-09-09T14:40:06;4.53;;;2.15;;
11614;SDS011;5863;52.832;4.758;2022-09-09T14:42:34;2.08;;;1.88;;
11614;SDS011;5863;52.832;4.758;2022-09-09T14:45:01;5.90;;;2.15;;
11614;SDS011;5863;52.832;4.758;2022-09-09T14:47:28;2.53;;;2.30;;
11614;SDS011;5863;52.832;4.758;2022-09-09T14:49:55;2.72;;;2.42;;
11614;SDS011;5863;52.832;4.758;2022-09-09T14:52:23;5.20;;;2.50;;
11614;SDS011;5863;52.832;4.758;2022-09-09T14:54:50;3.85;;;2.40;;
11614;SDS011;5863;52.832;4.758;2022-09-09T14:57:17;5.25;;;2.88;;
11614;SDS011;5863;52.832;4.758;2022-09-09T14:59:45;4.53;;;3.00;;
11614;SDS011;5863;52.832;4.758;2022-09-09T15:02:14;5.53;;;3.13;;
11614;SDS011;5863;52.832;4.758;2022-09-09T15:04:40;3.15;;;2.85;;
11614;SDS011;5863;52.832;4.758;2022-09-09T15:07:07;4.75;;;3.08;;
11614;SDS011;5863;52.832;4.758;2022-09-09T15:09:35;6.30;;;3.03;;
11614;SDS011;5863;52.832;4.758;2022-09-09T15:12:02;3.80;;;3.10;;
11614;SDS011;5863;52.832;4.758;2022-09-09T15:14:31;4.38;;;2.90;;
11614;SDS011;5863;52.832;4.758;2022-09-09T15:16:59;5.22;;;2.88;;
11614;SDS011;5863;52.832;4.758;2022-09-09T15:19:26;4.38;;;2.85;;
11614;SDS011;5863;52.832;4.758;2022-09-09T15:21:53;5.10;;;2.72;;
11614;SDS011;5863;52.832;4.758;2022-09-09T15:24:20;3.42;;;2.88;;